Time,TemperatureF,DewpointF,PressureIn,WindDirection,WindDirectionDegrees,WindSpeedMPH,WindSpeedGustMPH,Humidity,HourlyPrecipIn,Conditions,Clouds,dailyrainin,SoftwareType,DateUTC
2013-10-11 00:02:00,53.4,48.7,26.56,WNW,293,6.2,7.3,84,0.00,,,0.00,WUHU216HW,2013-10-11 04:02:00,
2013-10-11 00:07:00,53.4,48.7,26.56,WNW,293,7.1,7.1,84,0.00,,,0.00,WUHU216HW,2013-10-11 04:07:00,
2013-10-11 00:12:00,53.4,48.7,26.56,WNW,293,5.8,7.6,84,0.00,,,0.00,WUHU216HW,2013-10-11 04:12:00,
2013-10-11 00:17:00,53.2,48.5,26.56,WNW,293,7.6,7.6,84,0.00,,,0.00,WUHU216HW,2013-10-11 04:17:00,
2013-10-11 00:22:00,53.2,48.5,26.56,WNW,293,7.1,7.6,84,0.00,,,0.00,WUHU216HW,2013-10-11 04:22:00,
2013-10-11 00:28:00,53.2,48.5,26.56,WNW,293,7.1,7.6,84,0.00,,,0.00,WUHU216HW,2013-10-11 04:28:00,
2013-10-11 00:33:00,53.4,48.7,26.55,WNW,293,8.2,8.2,84,0.00,,,0.00,WUHU216HW,2013-10-11 04:33:00,
2013-10-11 00:38:00,53.7,49.0,26.55,WNW,293,6.2,8.2,84,0.00,,,0.00,WUHU216HW,2013-10-11 04:38:00,
2013-10-11 00:43:00,53.7,49.0,26.55,WNW,293,7.3,7.6,84,0.00,,,0.00,WUHU216HW,2013-10-11 04:43:00,
2013-10-11 00:48:00,53.7,49.0,26.55,WNW,293,7.1,8.5,84,0.00,,,0.00,WUHU216HW,2013-10-11 04:48:00,
2013-10-11 00:53:00,53.7,49.0,26.55,NW,315,7.3,8.5,84,0.00,,,0.00,WUHU216HW,2013-10-11 04:53:00,
2013-10-11 00:58:00,53.7,49.0,26.55,WNW,293,7.1,7.3,84,0.00,,,0.00,WUHU216HW,2013-10-11 04:58:00,
2013-10-11 01:03:00,53.7,49.0,26.55,WNW,293,8.5,8.5,84,0.00,,,0.00,WUHU216HW,2013-10-11 05:03:00,
2013-10-11 01:09:00,53.7,49.0,26.54,WNW,293,8.5,8.5,84,0.00,,,0.00,WUHU216HW,2013-10-11 05:09:00,
2013-10-11 01:14:00,53.7,48.7,26.55,WNW,293,6.4,8.5,83,0.00,,,0.00,WUHU216HW,2013-10-11 05:14:00,
2013-10-11 01:19:00,53.7,48.7,26.55,WNW,293,6.4,7.3,83,0.00,,,0.00,WUHU216HW,2013-10-11 05:19:00,
2013-10-11 01:24:00,53.7,48.7,26.55,WNW,293,5.5,6.7,83,0.00,,,0.00,WUHU216HW,2013-10-11 05:24:00,
2013-10-11 01:29:00,53.7,48.7,26.55,WNW,293,6.2,6.4,83,0.00,,,0.00,WUHU216HW,2013-10-11 05:29:00,
2013-10-11 01:34:00,53.7,48.7,26.54,WNW,293,4.2,6.7,83,0.00,,,0.00,WUHU216HW,2013-10-11 05:34:00,
2013-10-11 01:39:00,53.7,48.7,26.54,WNW,293,6.4,6.7,83,0.00,,,0.00,WUHU216HW,2013-10-11 05:39:00,
2013-10-11 01:44:00,53.7,48.7,26.54,West,270,5.3,6.7,83,0.00,,,0.00,WUHU216HW,2013-10-11 05:44:00,
2013-10-11 01:49:00,53.7,48.7,26.54,WNW,293,6.2,6.4,83,0.00,,,0.00,WUHU216HW,2013-10-11 05:49:00,
2013-10-11 01:54:00,53.7,48.7,26.54,WNW,293,7.3,7.3,83,0.00,,,0.00,WUHU216HW,2013-10-11 05:54:00,
2013-10-11 01:59:00,53.9,48.5,26.54,NW,315,4.2,7.3,82,0.00,,,0.00,WUHU216HW,2013-10-11 05:59:00,
2013-10-11 02:04:00,53.9,48.5,26.54,WNW,293,6.0,6.9,82,0.00,,,0.00,WUHU216HW,2013-10-11 06:04:00,
2013-10-11 02:10:00,53.7,48.4,26.54,WNW,293,6.7,6.9,82,0.00,,,0.00,WUHU216HW,2013-10-11 06:10:00,
2013-10-11 02:15:00,53.7,48.4,26.54,West,270,7.1,7.6,82,0.00,,,0.00,WUHU216HW,2013-10-11 06:15:00,
2013-10-11 02:20:00,53.7,48.4,26.54,WNW,293,6.0,7.6,82,0.00,,,0.00,WUHU216HW,2013-10-11 06:20:00,
2013-10-11 02:25:00,53.6,48.2,26.54,WNW,293,6.2,7.1,82,0.00,,,0.00,WUHU216HW,2013-10-11 06:25:00,
2013-10-11 02:30:00,53.7,48.4,26.54,West,270,7.6,7.6,82,0.00,,,0.00,WUHU216HW,2013-10-11 06:30:00,
2013-10-11 02:35:00,53.7,48.4,26.54,WNW,293,6.4,7.6,82,0.00,,,0.00,WUHU216HW,2013-10-11 06:35:00,
2013-10-11 02:40:00,53.4,48.3,26.54,West,270,4.0,7.6,83,0.00,,,0.00,WUHU216HW,2013-10-11 06:40:00,
2013-10-11 02:45:00,53.4,48.3,26.53,WNW,293,2.4,5.1,83,0.00,,,0.00,WUHU216HW,2013-10-11 06:45:00,
2013-10-11 02:50:00,53.4,48.3,26.54,West,270,6.9,6.9,83,0.00,,,0.00,WUHU216HW,2013-10-11 06:50:00,
2013-10-11 02:55:00,53.2,48.2,26.54,West,270,4.9,7.1,83,0.00,,,0.00,WUHU216HW,2013-10-11 06:55:00,
2013-10-11 03:01:00,53.2,48.2,26.54,West,270,5.3,7.1,83,0.00,,,0.00,WUHU216HW,2013-10-11 07:01:00,
2013-10-11 03:06:00,53.0,48.0,26.54,West,270,4.0,5.8,83,0.00,,,0.00,WUHU216HW,2013-10-11 07:06:00,
2013-10-11 03:11:00,52.8,47.8,26.54,WNW,293,7.1,7.1,83,0.00,,,0.00,WUHU216HW,2013-10-11 07:11:00,
2013-10-11 03:16:00,52.8,47.8,26.54,WNW,293,6.0,7.1,83,0.00,,,0.00,WUHU216HW,2013-10-11 07:16:00,
2013-10-11 03:21:00,52.8,47.8,26.53,WNW,293,7.8,8.0,83,0.00,,,0.00,WUHU216HW,2013-10-11 07:21:00,
2013-10-11 03:26:00,52.8,47.8,26.53,West,270,6.0,8.0,83,0.00,,,0.00,WUHU216HW,2013-10-11 07:26:00,
2013-10-11 03:31:00,52.7,47.6,26.53,WNW,293,6.4,7.8,83,0.00,,,0.00,WUHU216HW,2013-10-11 07:31:00,
2013-10-11 03:36:00,52.7,47.6,26.53,WNW,293,7.3,7.3,83,0.00,,,0.00,WUHU216HW,2013-10-11 07:36:00,
2013-10-11 03:41:00,52.7,47.6,26.53,WNW,293,6.9,7.3,83,0.00,,,0.00,WUHU216HW,2013-10-11 07:41:00,
2013-10-11 03:46:00,52.8,47.8,26.53,WNW,293,6.4,6.9,83,0.00,,,0.00,WUHU216HW,2013-10-11 07:46:00,
2013-10-11 03:52:00,52.8,47.8,26.53,WNW,293,4.9,6.9,83,0.00,,,0.00,WUHU216HW,2013-10-11 07:52:00,
2013-10-11 03:57:00,52.8,47.8,26.53,WNW,293,6.7,6.7,83,0.00,,,0.00,WUHU216HW,2013-10-11 07:57:00,
2013-10-11 04:02:00,52.7,47.6,26.53,WNW,293,6.2,6.7,83,0.00,,,0.00,WUHU216HW,2013-10-11 08:02:00,
2013-10-11 04:07:00,52.5,47.4,26.53,WNW,293,7.3,7.3,83,0.00,,,0.00,WUHU216HW,2013-10-11 08:07:00,
2013-10-11 04:12:00,52.5,47.8,26.53,WNW,293,7.3,7.6,84,0.00,,,0.00,WUHU216HW,2013-10-11 08:12:00,
2013-10-11 04:18:00,52.5,47.8,26.53,NW,315,4.6,7.6,84,0.00,,,0.00,WUHU216HW,2013-10-11 08:18:00,
2013-10-11 04:23:00,52.5,47.8,26.53,WNW,293,7.6,9.6,84,0.00,,,0.00,WUHU216HW,2013-10-11 08:23:00,
2013-10-11 04:28:00,52.5,47.8,26.54,WNW,293,8.5,9.6,84,0.00,,,0.00,WUHU216HW,2013-10-11 08:28:00,
2013-10-11 04:33:00,52.7,47.9,26.54,WNW,293,6.4,8.5,84,0.00,,,0.00,WUHU216HW,2013-10-11 08:33:00,
2013-10-11 04:39:00,52.8,48.1,26.54,WNW,293,7.8,8.0,84,0.00,,,0.00,WUHU216HW,2013-10-11 08:39:00,
2013-10-11 04:44:00,52.8,48.1,26.54,West,270,7.6,8.9,84,0.00,,,0.00,WUHU216HW,2013-10-11 08:44:00,
2013-10-11 04:49:00,53.2,48.5,26.53,WNW,293,8.5,8.9,84,0.00,,,0.00,WUHU216HW,2013-10-11 08:49:00,
2013-10-11 04:55:00,53.2,48.5,26.53,WNW,293,6.9,8.5,84,0.00,,,0.00,WUHU216HW,2013-10-11 08:55:00,
2013-10-11 05:00:00,53.4,48.7,26.53,WNW,293,7.8,8.2,84,0.00,,,0.00,WUHU216HW,2013-10-11 09:00:00,
2013-10-11 05:05:00,53.4,48.7,26.53,WNW,293,7.6,7.8,84,0.00,,,0.00,WUHU216HW,2013-10-11 09:05:00,
2013-10-11 05:10:00,53.2,48.5,26.53,WNW,293,6.4,7.8,84,0.00,,,0.00,WUHU216HW,2013-10-11 09:10:00,
2013-10-11 05:15:00,53.4,48.7,26.53,NW,315,7.3,8.0,84,0.00,,,0.00,WUHU216HW,2013-10-11 09:15:00,
2013-10-11 05:20:00,53.2,48.2,26.53,NW,315,6.9,8.0,83,0.00,,,0.00,WUHU216HW,2013-10-11 09:20:00,
2013-10-11 05:25:00,53.0,48.0,26.53,WNW,293,7.8,10.2,83,0.00,,,0.00,WUHU216HW,2013-10-11 09:25:00,
2013-10-11 05:31:00,52.8,47.8,26.54,WNW,293,8.0,10.2,83,0.00,,,0.00,WUHU216HW,2013-10-11 09:31:00,
2013-10-11 05:36:00,52.7,47.6,26.54,WNW,293,6.2,8.0,83,0.00,,,0.00,WUHU216HW,2013-10-11 09:36:00,
2013-10-11 05:41:00,52.7,47.6,26.54,WNW,293,6.9,7.8,83,0.00,,,0.00,WUHU216HW,2013-10-11 09:41:00,
2013-10-11 05:46:00,52.5,47.4,26.54,WNW,293,6.9,7.8,83,0.00,,,0.00,WUHU216HW,2013-10-11 09:46:00,
2013-10-11 05:51:00,52.5,47.4,26.54,WNW,293,7.8,8.0,83,0.00,,,0.00,WUHU216HW,2013-10-11 09:51:00,
2013-10-11 05:57:00,52.5,47.4,26.54,WNW,293,5.8,8.0,83,0.00,,,0.00,WUHU216HW,2013-10-11 09:57:00,
2013-10-11 06:02:00,52.3,47.3,26.54,WNW,293,7.1,7.1,83,0.00,,,0.00,WUHU216HW,2013-10-11 10:02:00,
2013-10-11 06:07:00,52.3,47.3,26.54,WNW,293,7.3,7.3,83,0.00,,,0.00,WUHU216HW,2013-10-11 10:07:00,
2013-10-11 06:12:00,52.3,47.3,26.54,WNW,293,7.6,7.6,83,0.00,,,0.00,WUHU216HW,2013-10-11 10:12:00,
2013-10-11 06:18:00,52.3,47.3,26.54,WNW,293,7.6,7.6,83,0.00,,,0.00,WUHU216HW,2013-10-11 10:18:00,
2013-10-11 06:23:00,52.3,47.3,26.54,WNW,293,5.5,7.6,83,0.00,,,0.00,WUHU216HW,2013-10-11 10:23:00,
2013-10-11 06:28:00,52.3,47.3,26.55,WNW,293,6.9,7.6,83,0.00,,,0.00,WUHU216HW,2013-10-11 10:28:00,
2013-10-11 06:34:00,52.3,47.3,26.55,WNW,293,2.6,6.9,83,0.00,,,0.00,WUHU216HW,2013-10-11 10:34:00,
2013-10-11 06:39:00,52.3,47.3,26.55,WNW,293,0.0,5.3,83,0.00,,,0.00,WUHU216HW,2013-10-11 10:39:00,
2013-10-11 06:44:00,52.1,47.1,26.55,WNW,293,0.0,2.6,83,0.00,,,0.00,WUHU216HW,2013-10-11 10:44:00,
2013-10-11 06:49:00,51.9,46.9,26.55,WNW,293,0.0,0.0,83,0.00,,,0.00,WUHU216HW,2013-10-11 10:49:00,
2013-10-11 06:54:00,51.6,46.5,26.55,NW,315,0.0,0.0,83,0.00,,,0.00,WUHU216HW,2013-10-11 10:54:00,
2013-10-11 06:59:00,51.2,45.9,26.55,NW,315,1.5,1.5,82,0.00,,,0.00,WUHU216HW,2013-10-11 10:59:00,
2013-10-11 07:04:00,51.2,45.9,26.55,NW,315,1.5,1.5,82,0.00,,,0.00,WUHU216HW,2013-10-11 11:04:00,
2013-10-11 07:09:00,50.5,45.2,26.55,NW,315,1.5,1.5,82,0.00,,,0.00,WUHU216HW,2013-10-11 11:09:00,
2013-10-11 07:14:00,50.1,44.8,26.55,NW,315,0.8,1.5,82,0.00,,,0.00,WUHU216HW,2013-10-11 11:14:00,
2013-10-11 07:20:00,50.1,45.4,26.55,WNW,293,2.0,2.0,84,0.00,,,0.00,WUHU216HW,2013-10-11 11:20:00,
2013-10-11 07:25:00,50.1,45.4,26.55,WNW,293,2.9,2.9,84,0.00,,,0.00,WUHU216HW,2013-10-11 11:25:00,
2013-10-11 07:30:00,49.8,45.4,26.55,WNW,293,3.8,3.8,85,0.00,,,0.00,WUHU216HW,2013-10-11 11:30:00,
2013-10-11 07:35:00,50.0,45.5,26.55,WNW,293,5.5,5.5,85,0.00,,,0.00,WUHU216HW,2013-10-11 11:35:00,
2013-10-11 07:40:00,50.1,45.7,26.55,WNW,293,8.7,8.7,85,0.00,,,0.00,WUHU216HW,2013-10-11 11:40:00,
2013-10-11 07:45:00,50.1,45.7,26.55,WNW,293,6.7,8.7,85,0.00,,,0.00,WUHU216HW,2013-10-11 11:45:00,
2013-10-11 07:51:00,50.3,45.9,26.55,WNW,293,6.0,6.9,85,0.00,,,0.00,WUHU216HW,2013-10-11 11:51:00,
2013-10-11 07:56:00,50.3,45.9,26.55,WNW,293,6.0,6.9,85,0.00,,,0.00,WUHU216HW,2013-10-11 11:56:00,
2013-10-11 08:01:00,50.3,45.9,26.55,WNW,293,7.1,7.1,85,0.00,,,0.00,WUHU216HW,2013-10-11 12:01:00,
2013-10-11 08:06:00,50.7,46.3,26.55,WNW,293,7.8,7.8,85,0.00,,,0.00,WUHU216HW,2013-10-11 12:06:00,
2013-10-11 08:11:00,50.7,46.3,26.55,WNW,293,6.0,7.8,85,0.00,,,0.00,WUHU216HW,2013-10-11 12:11:00,
2013-10-11 08:16:00,50.7,46.3,26.56,WNW,293,7.1,7.8,85,0.00,,,0.00,WUHU216HW,2013-10-11 12:16:00,
2013-10-11 08:21:00,50.9,46.3,26.56,WNW,293,5.3,7.1,85,0.00,,,0.00,WUHU216HW,2013-10-11 12:21:00,
2013-10-11 08:26:00,51.0,46.6,26.56,WNW,293,5.8,6.4,85,0.00,,,0.00,WUHU216HW,2013-10-11 12:26:00,
2013-10-11 08:31:00,51.0,46.6,26.56,WNW,293,7.6,7.6,85,0.00,,,0.00,WUHU216HW,2013-10-11 12:31:00,
2013-10-11 08:36:00,51.4,46.7,26.56,WNW,293,6.2,7.6,84,0.00,,,0.00,WUHU216HW,2013-10-11 12:36:00,
2013-10-11 08:41:00,51.6,46.9,26.56,WNW,293,5.3,6.2,84,0.00,,,0.00,WUHU216HW,2013-10-11 12:41:00,
2013-10-11 12:42:00,59.7,48.7,26.56,NW,315,1.5,1.5,67,0.00,,,0.00,WUHU216HW,2013-10-11 16:42:00,
2013-10-11 12:47:00,59.7,48.7,26.56,NW,315,1.5,1.5,67,0.00,,,0.00,WUHU216HW,2013-10-11 16:47:00,
2013-10-11 12:52:00,60.6,49.2,26.55,WNW,293,6.7,6.7,66,0.00,,,0.00,WUHU216HW,2013-10-11 16:52:00,
2013-10-11 12:57:00,60.9,49.5,26.55,NW,315,0.0,7.1,66,0.00,,,0.00,WUHU216HW,2013-10-11 16:57:00,
2013-10-11 13:02:00,61.3,49.4,26.55,WNW,293,0.0,7.1,65,0.00,,,0.00,WUHU216HW,2013-10-11 17:02:00,
2013-10-11 13:07:00,61.7,49.8,26.55,WNW,293,0.0,6.2,65,0.00,,,0.00,WUHU216HW,2013-10-11 17:07:00,
2013-10-11 13:12:00,61.8,49.5,26.55,WNW,293,3.8,6.9,64,0.00,,,0.00,WUHU216HW,2013-10-11 17:12:00,
2013-10-11 13:17:00,61.8,49.1,26.54,WNW,293,6.4,8.5,63,0.00,,,0.00,WUHU216HW,2013-10-11 17:17:00,
2013-10-11 13:22:00,61.7,49.4,26.55,West,270,1.5,8.5,64,0.00,,,0.00,WUHU216HW,2013-10-11 17:22:00,
2013-10-11 13:27:00,61.7,49.4,26.55,WNW,293,1.5,6.4,64,0.00,,,0.00,WUHU216HW,2013-10-11 17:27:00,
2013-10-11 13:32:00,61.7,49.4,26.55,WNW,293,4.0,6.0,64,0.00,,,0.00,WUHU216HW,2013-10-11 17:32:00,
2013-10-11 13:37:00,61.7,49.4,26.54,NW,315,5.8,9.3,64,0.00,,,0.00,WUHU216HW,2013-10-11 17:37:00,
2013-10-11 13:43:00,61.7,48.9,26.53,WNW,293,8.0,9.3,63,0.00,,,0.00,WUHU216HW,2013-10-11 17:43:00,
2013-10-11 13:48:00,61.7,48.9,26.53,WNW,293,8.0,8.0,63,0.00,,,0.00,WUHU216HW,2013-10-11 17:48:00,
2013-10-11 13:53:00,61.8,49.5,26.54,West,270,6.4,8.0,64,0.00,,,0.00,WUHU216HW,2013-10-11 17:53:00,
2013-10-11 13:58:00,62.2,49.8,26.54,WNW,293,2.6,8.0,64,0.00,,,0.00,WUHU216HW,2013-10-11 17:58:00,
2013-10-11 17:50:00,61.8,47.9,26.53,NW,315,7.1,7.1,60,0.00,,,0.00,WUHU216HW,2013-10-11 21:50:00,
2013-10-11 17:55:00,61.8,47.9,26.53,NW,315,7.1,7.1,60,0.00,,,0.00,WUHU216HW,2013-10-11 21:55:00,
2013-10-11 18:00:00,61.5,47.5,26.53,NW,315,7.1,7.1,60,0.00,,,0.00,WUHU216HW,2013-10-11 22:00:00,
2013-10-11 18:05:00,61.5,47.5,26.53,NW,315,5.8,7.1,60,0.00,,,0.00,WUHU216HW,2013-10-11 22:05:00,
2013-10-11 18:10:00,61.5,47.5,26.53,NW,315,5.5,6.9,60,0.00,,,0.00,WUHU216HW,2013-10-11 22:10:00,
2013-10-11 18:15:00,61.5,47.5,26.53,NW,315,5.5,5.5,60,0.00,,,0.00,WUHU216HW,2013-10-11 22:15:00,
2013-10-11 18:20:00,61.5,47.5,26.53,NW,315,5.5,5.5,61,0.00,,,0.00,WUHU216HW,2013-10-11 22:20:00,
2013-10-11 18:25:00,60.9,47.5,26.53,NW,315,1.1,5.5,61,0.00,,,0.00,WUHU216HW,2013-10-11 22:25:00,
2013-10-11 18:30:00,60.9,47.5,26.53,NW,315,1.7,5.5,61,0.00,,,0.00,WUHU216HW,2013-10-11 22:30:00,
2013-10-11 18:35:00,60.6,47.1,26.53,NW,315,6.2,6.2,61,0.00,,,0.00,WUHU216HW,2013-10-11 22:35:00,
2013-10-11 18:40:00,60.6,47.1,26.54,NW,315,7.1,7.1,61,0.00,,,0.00,WUHU216HW,2013-10-11 22:40:00,
2013-10-11 18:45:00,60.4,47.4,26.54,NW,315,6.4,7.1,62,0.00,,,0.00,WUHU216HW,2013-10-11 22:45:00,
2013-10-11 18:51:00,60.2,47.4,26.54,NW,315,6.4,7.1,62,0.00,,,0.00,WUHU216HW,2013-10-11 22:51:00,
2013-10-11 18:56:00,60.0,47.0,26.54,NW,315,5.8,6.4,62,0.00,,,0.00,WUHU216HW,2013-10-11 22:56:00,
2013-10-11 19:01:00,60.0,47.0,26.54,NW,315,7.1,7.1,62,0.00,,,0.00,WUHU216HW,2013-10-11 23:01:00,
2013-10-11 19:07:00,59.9,46.8,26.54,WNW,293,6.2,7.1,62,0.00,,,0.00,WUHU216HW,2013-10-11 23:07:00,
2013-10-11 19:12:00,59.7,46.6,26.55,WNW,293,6.4,7.1,62,0.00,,,0.00,WUHU216HW,2013-10-11 23:12:00,
2013-10-11 19:17:00,59.7,46.6,26.55,NW,315,6.0,6.4,62,0.00,,,0.00,WUHU216HW,2013-10-11 23:17:00,
2013-10-11 19:22:00,59.7,46.6,26.54,NW,315,6.2,6.2,62,0.00,,,0.00,WUHU216HW,2013-10-11 23:22:00,
2013-10-11 19:27:00,59.5,46.5,26.54,NW,315,7.8,7.8,62,0.00,,,0.00,WUHU216HW,2013-10-11 23:27:00,
2013-10-11 19:32:00,59.5,46.5,26.54,NW,315,7.3,7.8,62,0.00,,,0.00,WUHU216HW,2013-10-11 23:32:00,
2013-10-11 19:38:00,59.1,46.5,26.54,NW,315,7.1,7.8,63,0.00,,,0.00,WUHU216HW,2013-10-11 23:38:00,
2013-10-11 19:43:00,59.1,46.5,26.55,NW,315,6.7,8.0,63,0.00,,,0.00,WUHU216HW,2013-10-11 23:43:00,
2013-10-11 19:48:00,59.0,46.3,26.55,NW,315,6.7,8.0,63,0.00,,,0.00,WUHU216HW,2013-10-11 23:48:00,
2013-10-11 19:54:00,58.8,46.2,26.55,WNW,293,7.6,7.6,63,0.00,,,0.00,WUHU216HW,2013-10-11 23:54:00,
2013-10-11 19:59:00,58.8,46.2,26.55,NW,315,7.3,8.2,63,0.00,,,0.00,WUHU216HW,2013-10-11 23:59:00,
2013-10-11 20:04:00,58.8,46.2,26.55,NW,315,8.2,9.3,63,0.00,,,0.00,WUHU216HW,2013-10-12 00:04:00,
2013-10-11 20:09:00,59.1,46.5,26.55,NW,315,7.8,9.6,63,0.00,,,0.00,WUHU216HW,2013-10-12 00:09:00,
2013-10-11 20:14:00,59.1,46.5,26.55,NW,315,8.5,9.6,63,0.00,,,0.00,WUHU216HW,2013-10-12 00:14:00,
2013-10-11 20:19:00,59.3,46.7,26.55,NW,315,7.6,8.5,63,0.00,,,0.00,WUHU216HW,2013-10-12 00:19:00,
2013-10-11 20:24:00,59.3,46.7,26.55,WNW,293,6.2,7.8,63,0.00,,,0.00,WUHU216HW,2013-10-12 00:24:00,
2013-10-11 20:29:00,59.1,46.5,26.55,NW,315,7.1,7.8,63,0.00,,,0.00,WUHU216HW,2013-10-12 00:29:00,
2013-10-11 20:34:00,59.1,46.5,26.55,NW,315,6.2,8.7,63,0.00,,,0.00,WUHU216HW,2013-10-12 00:34:00,
2013-10-11 20:39:00,59.0,46.3,26.55,NW,315,5.8,8.7,63,0.00,,,0.00,WUHU216HW,2013-10-12 00:39:00,
2013-10-11 20:45:00,58.8,46.6,26.55,WNW,293,5.8,7.3,64,0.00,,,0.00,WUHU216HW,2013-10-12 00:45:00,
2013-10-11 20:50:00,58.8,46.6,26.55,NW,315,7.1,7.3,64,0.00,,,0.00,WUHU216HW,2013-10-12 00:50:00,
2013-10-11 20:55:00,58.8,46.6,26.55,WNW,293,7.8,7.8,64,0.00,,,0.00,WUHU216HW,2013-10-12 00:55:00,
2013-10-11 21:00:00,58.8,47.0,26.55,WNW,293,6.2,7.8,65,0.00,,,0.00,WUHU216HW,2013-10-12 01:00:00,
2013-10-11 21:06:00,58.8,47.0,26.55,NW,315,7.3,7.3,65,0.00,,,0.00,WUHU216HW,2013-10-12 01:06:00,
2013-10-11 21:11:00,58.8,47.0,26.55,NNW,338,7.1,7.3,65,0.00,,,0.00,WUHU216HW,2013-10-12 01:11:00,
2013-10-11 21:16:00,58.8,47.0,26.55,NW,315,7.8,7.8,65,0.00,,,0.00,WUHU216HW,2013-10-12 01:16:00,
2013-10-11 21:21:00,58.6,47.2,26.55,NW,315,7.3,7.8,66,0.00,,,0.00,WUHU216HW,2013-10-12 01:21:00,
2013-10-11 21:26:00,58.6,47.2,26.55,NW,315,8.5,8.5,66,0.00,,,0.00,WUHU216HW,2013-10-12 01:26:00,
2013-10-11 21:31:00,58.6,47.2,26.55,NW,315,7.6,8.5,66,0.00,,,0.00,WUHU216HW,2013-10-12 01:31:00,
2013-10-11 21:36:00,58.2,46.9,26.55,NW,315,6.9,7.6,66,0.00,,,0.00,WUHU216HW,2013-10-12 01:36:00,
2013-10-11 21:41:00,58.2,47.3,26.55,NW,315,7.3,7.6,67,0.00,,,0.00,WUHU216HW,2013-10-12 01:41:00,
2013-10-11 21:47:00,58.1,47.1,26.55,WNW,293,4.4,7.3,67,0.00,,,0.00,WUHU216HW,2013-10-12 01:47:00,
2013-10-11 21:52:00,58.1,47.5,26.55,NW,315,6.9,6.9,68,0.00,,,0.00,WUHU216HW,2013-10-12 01:52:00,
2013-10-11 21:57:00,58.1,47.5,26.55,NW,315,7.3,7.3,68,0.00,,,0.00,WUHU216HW,2013-10-12 01:57:00,
2013-10-11 22:02:00,58.1,47.5,26.55,NW,315,6.9,7.3,68,0.00,,,0.00,WUHU216HW,2013-10-12 02:02:00,
2013-10-11 22:07:00,58.1,47.5,26.55,NW,315,7.8,7.8,68,0.00,,,0.00,WUHU216HW,2013-10-12 02:07:00,
2013-10-11 22:12:00,57.9,47.3,26.55,NW,315,6.7,7.8,68,0.00,,,0.00,WUHU216HW,2013-10-12 02:12:00,
2013-10-11 22:17:00,57.9,47.3,26.55,NW,315,7.1,7.1,68,0.00,,,0.00,WUHU216HW,2013-10-12 02:17:00,
2013-10-11 22:22:00,57.9,47.3,26.55,NW,315,6.2,7.3,68,0.00,,,0.00,WUHU216HW,2013-10-12 02:22:00,
2013-10-11 22:27:00,57.9,47.7,26.55,NW,315,6.2,7.3,69,0.00,,,0.00,WUHU216HW,2013-10-12 02:27:00,
2013-10-11 22:32:00,57.9,47.7,26.55,WNW,293,6.7,6.7,69,0.00,,,0.00,WUHU216HW,2013-10-12 02:32:00,
2013-10-11 22:37:00,57.9,47.7,26.55,NW,315,6.9,7.1,69,0.00,,,0.00,WUHU216HW,2013-10-12 02:37:00,
2013-10-11 22:42:00,57.9,48.2,26.55,NW,315,4.0,7.1,70,0.00,,,0.00,WUHU216HW,2013-10-12 02:42:00,
2013-10-11 22:48:00,57.7,48.0,26.55,NW,315,2.4,6.9,70,0.00,,,0.00,WUHU216HW,2013-10-12 02:48:00,
2013-10-11 22:53:00,57.7,48.0,26.55,NW,315,3.3,4.2,70,0.00,,,0.00,WUHU216HW,2013-10-12 02:53:00,
2013-10-11 22:58:00,57.7,48.0,26.55,NW,315,4.9,5.5,70,0.00,,,0.00,WUHU216HW,2013-10-12 02:58:00,
2013-10-11 23:03:00,57.7,48.3,26.55,WNW,293,5.1,5.5,71,0.00,,,0.00,WUHU216HW,2013-10-12 03:03:00,
2013-10-11 23:08:00,57.7,48.3,26.55,WNW,293,6.9,6.9,71,0.00,,,0.00,WUHU216HW,2013-10-12 03:08:00,
2013-10-11 23:13:00,57.5,48.2,26.55,NW,315,7.1,7.1,71,0.00,,,0.00,WUHU216HW,2013-10-12 03:13:00,
2013-10-11 23:18:00,57.5,48.5,26.55,NW,315,6.2,7.1,72,0.00,,,0.00,WUHU216HW,2013-10-12 03:18:00,
2013-10-11 23:24:00,57.5,48.9,26.55,NW,315,6.4,7.8,73,0.00,,,0.00,WUHU216HW,2013-10-12 03:24:00,
2013-10-11 23:29:00,57.3,48.7,26.55,NW,315,5.3,7.8,73,0.00,,,0.00,WUHU216HW,2013-10-12 03:29:00,
2013-10-11 23:34:00,57.3,49.1,26.55,NW,315,5.3,6.9,74,0.00,,,0.00,WUHU216HW,2013-10-12 03:34:00,
2013-10-11 23:39:00,57.3,49.1,26.55,WNW,293,6.7,6.9,74,0.00,,,0.00,WUHU216HW,2013-10-12 03:39:00,
2013-10-11 23:44:00,57.0,48.7,26.55,NW,315,6.4,6.7,74,0.00,,,0.00,WUHU216HW,2013-10-12 03:44:00,
2013-10-11 23:50:00,57.0,49.1,26.55,NW,315,6.4,7.1,75,0.00,,,0.00,WUHU216HW,2013-10-12 03:50:00,
2013-10-11 23:55:00,57.0,49.1,26.55,NW,315,7.1,7.8,75,0.00,,,0.00,WUHU216HW,2013-10-12 03:55:00,